Terminal Aerodrome Forecast
Issued by NWS Grand Forks, ND

Home | Current Version | Previous Version | Graphics & Text | Print | Product List | Glossary On
Versions: 1 2 3 4 5 6 7 8 9 10 11 12 13 14
000
FTUS43 KFGF 011100
TAFFAR
TAF
KFAR 011121Z 0112/0212 15015KT P6SM SCT200
     FM011400 16016G22KT P6SM BKN200
     FM011900 29019G26KT P6SM BKN200
     FM020400 28011KT P6SM SCT200=

USA.gov is the U.S. government's official web portal to all federal, state and local government web resources and services.